createdAt,value
2023-03-05T00:00:40.535Z,47.53
2023-03-05T00:03:07.298Z,40.55
2023-03-05T00:05:34.893Z,34.85
2023-03-05T00:08:01.594Z,52.58
2023-03-05T00:10:28.389Z,47.15
2023-03-05T00:12:54.920Z,50.17
2023-03-05T00:15:21.700Z,45.88
2023-03-05T00:17:48.314Z,43.28
2023-03-05T00:20:14.975Z,36.10
2023-03-05T00:22:41.644Z,46.15
2023-03-05T00:25:08.594Z,50.33
2023-03-05T00:27:35.118Z,46.15
2023-03-05T00:30:01.866Z,44.55
2023-03-05T00:32:28.631Z,44.72
2023-03-05T00:34:55.162Z,46.45
2023-03-05T00:37:21.850Z,45.60
2023-03-05T00:39:48.469Z,31.75
2023-03-05T00:42:15.044Z,47.03
2023-03-05T00:44:41.746Z,45.90
2023-03-05T00:47:08.352Z,40.65
2023-03-05T00:49:34.942Z,49.95
2023-03-05T00:52:01.565Z,49.63
2023-03-05T00:54:28.216Z,44.88
2023-03-05T00:56:54.737Z,49.25
2023-03-05T00:59:21.468Z,44.10
2023-03-05T01:01:48.220Z,45.08
2023-03-05T01:04:14.926Z,40.38
2023-03-05T01:06:44.872Z,41.92
2023-03-05T01:09:11.787Z,45.22
2023-03-05T01:11:38.341Z,46.65
2023-03-05T01:14:05.007Z,43.15
2023-03-05T01:16:31.864Z,44.10
2023-03-05T01:18:58.515Z,40.33
2023-03-05T01:21:25.387Z,46.58
2023-03-05T01:23:52.055Z,36.97
2023-03-05T01:26:18.577Z,47.55
2023-03-05T01:28:45.131Z,38.42
2023-03-05T01:31:12.184Z,40.00
2023-03-05T01:33:39.456Z,40.38
2023-03-05T01:36:13.521Z,39.08
2023-03-05T01:38:41.123Z,40.53
2023-03-05T01:41:09.174Z,36.25
2023-03-05T01:43:35.825Z,33.75
2023-03-05T01:46:32.005Z,40.38
2023-03-05T01:49:04.668Z,36.05
2023-03-05T01:51:42.928Z,41.25
2023-03-05T01:54:13.515Z,40.90
2023-03-05T01:56:41.836Z,38.85
2023-03-05T01:59:08.923Z,38.17
2023-03-05T02:04:13.554Z,38.72
2023-03-05T02:06:41.684Z,42.58
2023-03-05T02:09:08.275Z,41.45
2023-03-05T02:11:35.683Z,38.92
2023-03-05T02:14:04.071Z,36.00
2023-03-05T02:16:36.929Z,37.55
2023-03-05T02:19:05.872Z,38.92
2023-03-05T02:21:44.760Z,37.90
2023-03-05T02:24:13.175Z,38.35
2023-03-05T02:26:39.950Z,37.55
2023-03-05T02:29:08.893Z,39.10
2023-03-05T02:31:35.650Z,40.53
2023-03-05T02:34:02.314Z,40.17
2023-03-05T02:36:28.974Z,39.22
2023-03-05T02:38:57.130Z,35.95
2023-03-05T02:41:24.727Z,40.20
2023-03-05T02:43:51.590Z,44.75
2023-03-05T02:46:18.392Z,41.60
2023-03-05T02:48:45.129Z,40.60
2023-03-05T02:51:12.140Z,39.95
2023-03-05T02:53:38.782Z,35.80
2023-03-05T02:56:05.775Z,33.95
2023-03-05T02:58:32.403Z,33.75
2023-03-05T03:00:59.053Z,31.58
2023-03-05T03:03:25.642Z,35.67
2023-03-05T03:05:52.295Z,33.78
2023-03-05T03:08:18.925Z,32.28
2023-03-05T03:10:45.493Z,35.45
2023-03-05T03:13:12.078Z,30.70
2023-03-05T03:15:40.396Z,31.42
2023-03-05T03:18:06.970Z,34.53
2023-03-05T03:20:35.041Z,28.90
2023-03-05T03:23:01.982Z,36.00
2023-03-05T03:25:28.647Z,29.52
2023-03-05T03:27:55.228Z,30.08
2023-03-05T03:30:21.804Z,34.47
2023-03-05T03:32:48.356Z,31.15
2023-03-05T03:35:15.088Z,31.98
2023-03-05T03:37:41.675Z,34.47
2023-03-05T03:40:09.571Z,31.63
2023-03-05T03:42:36.212Z,30.20
2023-03-05T03:45:03.400Z,34.08
2023-03-05T03:47:31.144Z,29.73
2023-03-05T03:49:59.121Z,27.65
2023-03-05T03:52:26.528Z,31.77
2023-03-05T03:54:55.717Z,30.75
2023-03-05T03:57:22.368Z,35.10
2023-03-05T03:59:50.362Z,34.45
2023-03-05T04:02:17.393Z,29.40
2023-03-05T04:04:44.213Z,28.58
2023-03-05T04:07:10.941Z,35.53
2023-03-05T04:09:37.486Z,33.15
2023-03-05T04:12:04.192Z,35.15
2023-03-05T04:14:30.836Z,30.60
2023-03-05T04:16:57.522Z,29.67
2023-03-05T04:19:24.223Z,31.83
2023-03-05T04:21:50.854Z,32.00
2023-03-05T04:24:17.500Z,27.35
2023-03-05T04:26:44.102Z,29.73
2023-03-05T04:29:11.059Z,31.77
2023-03-05T04:31:37.573Z,27.50
2023-03-05T04:34:04.136Z,33.65
2023-03-05T04:36:30.723Z,29.95
2023-03-05T04:38:57.424Z,29.25
2023-03-05T04:41:24.073Z,27.65
2023-03-05T04:43:50.738Z,29.65
2023-03-05T04:46:17.323Z,33.65
2023-03-05T04:48:43.905Z,28.10
2023-03-05T04:51:10.551Z,29.17
2023-03-05T04:53:37.164Z,26.23
2023-03-05T04:56:04.164Z,35.90
2023-03-05T04:58:30.760Z,28.08
2023-03-05T05:01:04.660Z,30.77
2023-03-05T05:03:31.785Z,31.73
2023-03-05T05:06:00.217Z,34.17
2023-03-05T05:08:27.978Z,34.60
2023-03-05T05:11:03.579Z,33.75
2023-03-05T05:13:31.404Z,32.35
2023-03-05T05:15:58.371Z,36.20
2023-03-05T05:18:25.477Z,36.67
2023-03-05T05:20:52.158Z,32.65
2023-03-05T05:23:19.288Z,34.15
2023-03-05T05:25:45.855Z,42.08
2023-03-05T05:28:12.554Z,39.92
2023-03-05T05:30:39.266Z,40.35
2023-03-05T05:33:05.852Z,40.60
2023-03-05T05:35:32.522Z,36.00
2023-03-05T05:37:59.069Z,37.28
2023-03-05T05:40:25.638Z,34.08
2023-03-05T05:42:52.428Z,36.75
2023-03-05T05:45:19.161Z,38.80
2023-03-05T05:47:45.786Z,41.55
2023-03-05T05:50:12.653Z,40.10
2023-03-05T05:52:39.248Z,41.30
2023-03-05T05:55:06.513Z,34.63
2023-03-05T05:57:34.446Z,37.72
2023-03-05T06:00:01.229Z,40.67
2023-03-05T06:02:27.917Z,42.10
2023-03-05T06:04:55.757Z,39.85
2023-03-05T06:07:23.173Z,37.10
2023-03-05T06:09:49.790Z,33.35
2023-03-05T06:12:17.709Z,37.28
2023-03-05T06:14:44.574Z,39.00
2023-03-05T06:17:12.920Z,39.28
2023-03-05T06:19:41.534Z,37.05
2023-03-05T06:22:08.079Z,41.03
2023-03-05T06:24:34.785Z,41.78
2023-03-05T06:27:01.752Z,41.28
2023-03-05T06:29:28.344Z,40.25
2023-03-05T06:31:55.120Z,40.78
2023-03-05T06:34:21.794Z,43.40
2023-03-05T06:36:48.413Z,40.53
2023-03-05T06:39:14.994Z,38.15
2023-03-05T06:41:41.670Z,38.55
2023-03-05T06:44:08.236Z,37.97
2023-03-05T06:46:37.464Z,37.78
2023-03-05T06:49:04.245Z,40.50
2023-03-05T06:51:33.951Z,35.22
2023-03-05T06:54:03.057Z,39.53
2023-03-05T06:56:30.076Z,38.30
2023-03-05T06:58:56.951Z,38.17
2023-03-05T07:01:23.859Z,37.78
2023-03-05T07:03:51.928Z,37.40
2023-03-05T07:06:18.774Z,41.58
2023-03-05T07:08:45.344Z,42.08
2023-03-05T07:11:20.650Z,42.55
2023-03-05T07:13:47.950Z,37.10
2023-03-05T07:16:18.317Z,43.58
2023-03-05T07:18:46.044Z,37.75
2023-03-05T07:21:17.605Z,38.63
2023-03-05T07:23:44.303Z,39.10
2023-03-05T07:26:11.580Z,41.53
2023-03-05T07:28:38.287Z,37.90
2023-03-05T07:31:12.161Z,40.00
2023-03-05T07:33:38.950Z,38.50
2023-03-05T07:36:08.707Z,38.22
2023-03-05T07:38:35.767Z,39.35
2023-03-05T07:41:07.453Z,38.17
2023-03-05T07:43:34.012Z,39.97
2023-03-05T07:46:03.533Z,39.60
2023-03-05T07:48:30.250Z,39.22
2023-03-05T07:51:08.480Z,37.63
2023-03-05T07:53:35.122Z,41.33
2023-03-05T07:56:01.786Z,41.25
2023-03-05T07:58:29.193Z,46.10
2023-03-05T08:00:55.982Z,37.60
2023-03-05T08:03:22.551Z,41.22
2023-03-05T08:05:49.177Z,45.20
2023-03-05T08:08:16.639Z,41.65
2023-03-05T08:10:43.337Z,47.45
2023-03-05T08:13:10.378Z,46.80
2023-03-05T08:15:38.298Z,50.08
2023-03-05T08:18:06.357Z,44.90
2023-03-05T08:20:35.791Z,44.53
2023-03-05T08:23:03.482Z,40.17
2023-03-05T08:25:30.099Z,41.97
2023-03-05T08:27:56.994Z,39.03
2023-03-05T08:30:27.290Z,41.15
2023-03-05T08:32:54.677Z,42.13
2023-03-05T08:35:21.497Z,42.75
2023-03-05T08:37:48.829Z,39.38
2023-03-05T08:40:18.015Z,40.38
2023-03-05T08:42:44.599Z,42.95
2023-03-05T08:45:11.846Z,43.15
2023-03-05T08:47:38.479Z,42.55
2023-03-05T08:50:05.402Z,45.15
2023-03-05T08:52:32.096Z,44.35
2023-03-05T08:54:58.617Z,39.05
2023-03-05T08:57:25.112Z,43.15
2023-03-05T08:59:51.776Z,41.72
2023-03-05T09:02:18.315Z,42.50
2023-03-05T09:04:44.819Z,37.65
2023-03-05T09:07:11.537Z,44.17
2023-03-05T09:09:38.075Z,40.40
2023-03-05T09:12:04.895Z,40.20
2023-03-05T09:14:31.643Z,41.22
2023-03-05T09:16:58.652Z,41.67
2023-03-05T09:19:25.444Z,39.83
2023-03-05T09:21:52.101Z,39.72
2023-03-05T09:24:18.628Z,44.30
2023-03-05T09:26:45.181Z,45.20
2023-03-05T09:29:12.575Z,51.08
2023-03-05T09:31:39.859Z,50.53
2023-03-05T09:34:08.278Z,46.75
2023-03-05T09:36:35.421Z,45.78
2023-03-05T09:39:02.290Z,44.35
2023-03-05T09:41:34.511Z,45.22
2023-03-05T09:44:32.080Z,41.65
2023-03-05T09:47:41.488Z,51.95
2023-03-05T09:50:14.150Z,51.58
2023-03-05T09:52:50.399Z,38.75
2023-03-05T09:55:29.622Z,44.95
2023-03-05T09:58:02.128Z,48.42
2023-03-05T10:00:34.592Z,46.97
2023-03-05T10:03:06.723Z,44.42
2023-03-05T10:05:59.416Z,50.05
2023-03-05T10:08:37.190Z,46.03
2023-03-05T10:11:06.994Z,46.30
2023-03-05T10:13:38.452Z,45.58
2023-03-05T10:16:27.908Z,41.17
2023-03-05T10:19:07.949Z,47.90
2023-03-05T10:21:43.324Z,41.88
2023-03-05T10:24:21.974Z,45.55
2023-03-05T10:26:56.114Z,47.75
2023-03-05T10:29:49.081Z,44.17
2023-03-05T10:32:22.160Z,42.40
2023-03-05T10:35:09.998Z,49.33
2023-03-05T10:37:48.846Z,46.58
2023-03-05T10:40:35.180Z,44.53
2023-03-05T10:43:14.027Z,40.30
2023-03-05T10:45:44.754Z,43.92
2023-03-05T10:48:36.674Z,42.97
2023-03-05T10:51:10.634Z,45.92
2023-03-05T10:53:42.663Z,39.22
2023-03-05T10:56:12.083Z,39.45
2023-03-05T10:58:38.626Z,42.67
2023-03-05T11:01:11.344Z,45.03
2023-03-05T11:04:03.709Z,40.63
2023-03-05T11:06:39.604Z,39.30
2023-03-05T11:09:24.638Z,43.20
2023-03-05T11:12:20.093Z,39.60
2023-03-05T11:15:02.300Z,37.92
2023-03-05T11:17:38.581Z,41.45
2023-03-05T11:20:29.678Z,39.67
2023-03-05T11:23:13.074Z,40.10
2023-03-05T11:25:51.367Z,44.50
2023-03-05T11:28:32.025Z,46.08
2023-03-05T11:31:07.746Z,38.63
2023-03-05T11:33:36.520Z,42.95
2023-03-05T11:36:20.335Z,41.22
2023-03-05T11:38:52.942Z,41.80
2023-03-05T11:41:26.273Z,44.78
2023-03-05T11:43:54.530Z,38.90
2023-03-05T11:46:22.263Z,37.20
2023-03-05T11:48:50.169Z,41.33
2023-03-05T11:51:23.251Z,39.65
2023-03-05T11:53:54.466Z,35.72
2023-03-05T11:59:20.558Z,37.53
2023-03-05T12:01:51.517Z,37.40
2023-03-05T12:04:20.057Z,34.17
2023-03-05T12:06:57.990Z,32.38
2023-03-05T12:09:31.574Z,34.90
2023-03-05T12:12:30.980Z,33.35
2023-03-05T12:15:25.892Z,32.13
2023-03-05T12:18:10.999Z,34.10
2023-03-05T12:20:47.989Z,35.08
2023-03-05T12:23:19.026Z,35.38
2023-03-05T12:25:57.897Z,37.22
2023-03-05T12:28:37.168Z,34.58
2023-03-05T12:31:23.254Z,32.97
2023-03-05T12:33:49.942Z,35.78
2023-03-05T12:36:19.565Z,39.17
2023-03-05T12:38:53.003Z,37.90
2023-03-05T12:41:22.267Z,33.58
2023-03-05T12:44:07.249Z,37.63
2023-03-05T12:46:39.355Z,32.15
2023-03-05T12:49:18.024Z,33.40
2023-03-05T12:51:52.691Z,35.70
2023-03-05T12:54:35.263Z,36.63
2023-03-05T12:57:06.093Z,33.50
2023-03-05T12:59:51.419Z,30.65
2023-03-05T13:02:26.714Z,33.35
2023-03-05T13:04:58.547Z,35.30
2023-03-05T13:07:25.049Z,31.45
2023-03-05T13:09:57.336Z,29.67
2023-03-05T13:12:26.165Z,34.33
2023-03-05T13:15:02.635Z,38.33
2023-03-05T13:17:44.574Z,30.88
2023-03-05T13:20:42.625Z,28.65
2023-03-05T13:23:27.974Z,27.48
2023-03-05T13:26:04.344Z,38.58
2023-03-05T13:28:32.819Z,31.88
2023-03-05T13:31:02.866Z,31.95
2023-03-05T13:33:32.699Z,32.03
2023-03-05T13:35:59.789Z,35.63
2023-03-05T13:38:35.845Z,30.40
2023-03-05T13:41:29.456Z,30.02
2023-03-05T13:44:01.956Z,34.95
2023-03-05T13:46:34.416Z,36.42
2023-03-05T13:49:22.259Z,31.05
2023-03-05T13:51:54.934Z,30.42
2023-03-05T13:54:23.646Z,29.35
2023-03-05T13:56:56.627Z,33.38
2023-03-05T13:59:25.957Z,33.20
2023-03-05T14:01:53.056Z,32.30
2023-03-05T14:04:23.481Z,33.85
2023-03-05T14:06:55.750Z,32.47
2023-03-05T14:09:31.005Z,32.28
2023-03-05T14:12:14.824Z,32.22
2023-03-05T14:14:43.715Z,31.38
2023-03-05T14:17:36.722Z,34.72
2023-03-05T14:20:09.838Z,32.13
2023-03-05T14:22:38.635Z,32.78
2023-03-05T14:25:06.564Z,31.67
2023-03-05T14:27:36.801Z,31.42
2023-03-05T14:30:05.219Z,33.15
2023-03-05T14:32:34.787Z,33.70
2023-03-05T14:35:04.520Z,31.80
2023-03-05T14:37:42.234Z,27.90
2023-03-05T14:40:12.283Z,31.02
2023-03-05T14:42:54.510Z,31.77
2023-03-05T14:45:27.434Z,31.48
2023-03-05T14:47:57.352Z,34.97
2023-03-05T14:50:36.428Z,32.95
2023-03-05T14:53:07.485Z,31.05
2023-03-05T14:58:06.904Z,32.47
2023-03-05T15:00:33.484Z,28.92
2023-03-05T15:03:00.239Z,32.63
2023-03-05T15:05:27.071Z,29.40
2023-03-05T15:07:53.701Z,30.88
2023-03-05T15:10:23.557Z,33.42
2023-03-05T15:12:51.440Z,31.77
2023-03-05T15:15:19.703Z,32.75
2023-03-05T15:17:48.710Z,32.20
2023-03-05T15:20:19.179Z,28.92
2023-03-05T15:22:45.790Z,32.88
2023-03-05T15:25:13.294Z,31.05
2023-03-05T15:27:40.152Z,32.03
2023-03-05T15:30:09.376Z,29.92
2023-03-05T15:32:36.079Z,32.83
2023-03-05T15:35:03.005Z,28.85
2023-03-05T15:37:29.771Z,33.53
2023-03-05T15:39:56.376Z,32.13
2023-03-05T15:42:23.060Z,32.17
2023-03-05T15:44:49.620Z,31.63
2023-03-05T15:47:16.247Z,32.45
2023-03-05T15:49:42.914Z,31.20
2023-03-05T15:52:09.472Z,31.48
2023-03-05T15:54:36.935Z,30.17
2023-03-05T15:57:08.099Z,28.17
2023-03-05T15:59:34.645Z,27.88
2023-03-05T16:02:02.145Z,33.92
2023-03-05T16:04:31.812Z,32.00
2023-03-05T16:07:00.699Z,31.33
2023-03-05T16:09:32.535Z,31.52
2023-03-05T16:11:59.090Z,27.60
2023-03-05T16:14:27.880Z,27.50
2023-03-05T16:16:55.981Z,29.15
2023-03-05T16:19:23.933Z,27.17
2023-03-05T16:21:50.475Z,29.27
2023-03-05T16:24:17.606Z,31.50
2023-03-05T16:26:44.224Z,30.70
2023-03-05T16:29:11.938Z,32.42
2023-03-05T16:31:40.750Z,23.67
2023-03-05T16:34:07.452Z,30.75
2023-03-05T16:36:35.684Z,31.30
2023-03-05T16:39:04.598Z,31.50
2023-03-05T16:41:31.799Z,30.10
2023-03-05T16:43:59.533Z,29.52
2023-03-05T16:46:28.861Z,29.52
2023-03-05T16:48:55.561Z,31.30
2023-03-05T16:51:22.379Z,28.30
2023-03-05T16:53:49.543Z,30.83
2023-03-05T16:56:16.541Z,27.35
2023-03-05T16:58:43.098Z,28.30
2023-03-05T17:01:18.573Z,28.60
2023-03-05T17:03:46.341Z,25.85
2023-03-05T17:06:18.195Z,28.25
2023-03-05T17:08:46.371Z,24.83
2023-03-05T17:11:13.648Z,23.85
2023-03-05T17:13:40.870Z,28.05
2023-03-05T17:16:11.269Z,22.20
2023-03-05T17:18:38.206Z,22.30
2023-03-05T17:21:07.197Z,25.40
2023-03-05T17:23:35.632Z,25.13
2023-03-05T17:26:11.118Z,22.30
2023-03-05T17:28:38.824Z,21.80
2023-03-05T17:31:05.586Z,24.13
2023-03-05T17:33:32.908Z,28.42
2023-03-05T17:35:59.775Z,25.50
2023-03-05T17:38:26.845Z,23.23
2023-03-05T17:40:53.435Z,22.88
2023-03-05T17:43:20.403Z,23.67
2023-03-05T17:45:47.545Z,23.45
2023-03-05T17:48:15.729Z,21.88
2023-03-05T17:50:42.970Z,27.40
2023-03-05T17:53:09.713Z,28.25
2023-03-05T17:55:36.301Z,20.88
2023-03-05T17:58:02.913Z,25.73
2023-03-05T18:00:31.118Z,20.08
2023-03-05T18:03:00.779Z,26.30
2023-03-05T18:05:29.050Z,23.15
2023-03-05T18:07:56.341Z,21.17
2023-03-05T18:10:28.310Z,25.95
2023-03-05T18:12:55.176Z,23.58
2023-03-05T18:15:23.866Z,23.38
2023-03-05T18:17:51.301Z,21.95
2023-03-05T18:20:32.261Z,22.90
2023-03-05T18:23:01.260Z,23.92
2023-03-05T18:25:31.286Z,20.77
2023-03-05T18:28:02.400Z,24.23
2023-03-05T18:32:55.998Z,21.88
2023-03-05T18:35:23.155Z,21.60
2023-03-05T18:37:49.789Z,25.00
2023-03-05T18:40:19.783Z,24.20
2023-03-05T18:42:46.633Z,23.50
2023-03-05T18:45:15.260Z,21.35
2023-03-05T18:47:44.702Z,22.42
2023-03-05T18:50:16.874Z,24.65
2023-03-05T18:52:43.763Z,27.23
2023-03-05T18:55:22.638Z,24.88
2023-03-05T18:57:49.346Z,23.00
2023-03-05T19:00:19.276Z,22.88
2023-03-05T19:02:45.950Z,27.75
2023-03-05T19:05:14.469Z,32.38
2023-03-05T19:07:41.327Z,22.67
2023-03-05T19:10:10.065Z,24.33
2023-03-05T19:12:45.394Z,22.60
2023-03-05T19:15:13.691Z,25.13
2023-03-05T19:17:40.751Z,20.98
2023-03-05T19:20:10.352Z,25.77
2023-03-05T19:22:37.053Z,26.50
2023-03-05T19:25:03.772Z,24.88
2023-03-05T19:27:30.325Z,21.77
2023-03-05T19:29:57.087Z,27.98
2023-03-05T19:32:24.195Z,28.20
2023-03-05T19:34:54.417Z,24.83
2023-03-05T19:37:21.149Z,28.92
2023-03-05T19:39:48.162Z,21.35
2023-03-05T19:42:15.132Z,25.70
2023-03-05T19:44:41.822Z,34.78
2023-03-05T19:47:08.388Z,32.10
2023-03-05T19:49:35.895Z,34.95
2023-03-05T19:52:04.408Z,37.80
2023-03-05T19:54:31.097Z,36.97
2023-03-05T19:56:58.982Z,38.13
2023-03-05T19:59:26.676Z,37.45
2023-03-05T20:01:53.625Z,41.83
2023-03-05T20:04:22.360Z,41.22
2023-03-05T20:06:49.515Z,39.50
2023-03-05T20:09:16.608Z,41.83
2023-03-05T20:11:43.625Z,39.67
2023-03-05T20:14:13.151Z,44.75
2023-03-05T20:16:39.735Z,43.90
2023-03-05T20:19:07.957Z,44.25
2023-03-05T20:21:37.549Z,44.00
2023-03-05T20:24:09.567Z,41.15
2023-03-05T20:26:38.263Z,43.28
2023-03-05T20:29:05.153Z,37.53
2023-03-05T20:31:37.165Z,39.13
2023-03-05T20:34:16.496Z,44.42
2023-03-05T20:36:43.229Z,44.92
2023-03-05T20:39:10.430Z,41.15
2023-03-05T20:41:39.131Z,43.70
2023-03-05T20:44:07.046Z,44.10
2023-03-05T20:46:36.876Z,41.95
2023-03-05T20:49:04.686Z,40.58
2023-03-05T20:51:35.077Z,38.58
2023-03-05T20:54:04.906Z,39.63
2023-03-05T20:56:33.004Z,40.65
2023-03-05T20:59:02.848Z,43.42
2023-03-05T21:01:30.444Z,37.80
2023-03-05T21:03:57.413Z,40.17
2023-03-05T21:06:24.680Z,42.45
2023-03-05T21:08:51.372Z,40.88
2023-03-05T21:11:18.397Z,41.10
2023-03-05T21:13:45.258Z,40.00
2023-03-05T21:16:16.697Z,36.65
2023-03-05T21:18:43.420Z,37.10
2023-03-05T21:21:09.974Z,41.17
2023-03-05T21:23:36.566Z,40.85
2023-03-05T21:26:04.370Z,41.08
2023-03-05T21:28:31.821Z,42.90
2023-03-05T21:30:58.569Z,39.38
2023-03-05T21:33:28.170Z,39.10
2023-03-05T21:35:57.032Z,40.28
2023-03-05T21:38:25.612Z,38.42
2023-03-05T21:40:54.026Z,39.00
2023-03-05T21:43:23.119Z,38.75
2023-03-05T21:45:52.614Z,37.72
2023-03-05T21:48:19.809Z,35.00
2023-03-05T21:50:47.246Z,37.72
2023-03-05T21:53:15.320Z,39.28
2023-03-05T21:56:04.264Z,40.85
2023-03-05T21:58:35.120Z,34.90
2023-03-05T22:01:02.291Z,34.95
2023-03-05T22:03:29.819Z,32.67
2023-03-05T22:05:57.346Z,37.88
2023-03-05T22:08:24.504Z,38.72
2023-03-05T22:10:51.885Z,38.75
2023-03-05T22:13:20.135Z,32.47
2023-03-05T22:15:49.688Z,34.25
2023-03-05T22:18:18.610Z,34.10
2023-03-05T22:20:45.549Z,35.58
2023-03-05T22:23:12.952Z,31.85
2023-03-05T22:25:40.222Z,34.58
2023-03-05T22:28:07.306Z,41.47
2023-03-05T22:30:33.904Z,33.33
2023-03-05T22:33:01.925Z,34.22
2023-03-05T22:35:28.798Z,33.10
2023-03-05T22:37:55.447Z,33.72
2023-03-05T22:40:22.973Z,35.40
2023-03-05T22:42:49.642Z,35.45
2023-03-05T22:45:19.302Z,37.95
2023-03-05T22:47:48.478Z,34.03
2023-03-05T22:50:16.340Z,36.17
2023-03-05T22:52:43.218Z,36.05
2023-03-05T22:55:12.978Z,36.67
2023-03-05T22:57:39.677Z,34.53
2023-03-05T23:00:13.510Z,37.22
2023-03-05T23:02:44.520Z,36.75
2023-03-05T23:05:11.838Z,36.88
2023-03-05T23:07:41.556Z,34.22
2023-03-05T23:10:20.878Z,31.80
2023-03-05T23:12:50.952Z,34.10
2023-03-05T23:15:22.597Z,34.38
2023-03-05T23:17:49.190Z,36.03
2023-03-05T23:20:18.002Z,34.53
2023-03-05T23:22:45.224Z,37.20
2023-03-05T23:25:13.311Z,36.53
2023-03-05T23:27:41.014Z,35.38
2023-03-05T23:30:17.693Z,33.80
2023-03-05T23:32:45.653Z,35.08
2023-03-05T23:35:14.737Z,34.45
2023-03-05T23:37:41.580Z,34.90
2023-03-05T23:40:11.947Z,33.42
2023-03-05T23:42:39.132Z,37.13
2023-03-05T23:45:07.288Z,36.45
2023-03-05T23:47:37.763Z,34.45
2023-03-05T23:50:06.188Z,34.50
2023-03-05T23:52:33.079Z,35.33
2023-03-05T23:54:59.885Z,39.97
2023-03-05T23:57:26.638Z,36.17
2023-03-05T23:59:53.211Z,35.58
